sensor_id;sensor_type;location;lat;lon;timestamp;pressure;altitude;pressure_sealevel;temperature;humidity
26915;BME280;14480;52.608;13.416;2023-03-01T09:17:18;140860.06;;;-12.85;100.00
26915;BME280;14480;52.608;13.416;2023-03-01T09:22:23;140882.19;;;-12.76;100.00
26915;BME280;14480;52.608;13.416;2023-03-01T09:27:27;140957.25;;;-12.45;100.00
26915;BME280;14480;52.608;13.416;2023-03-01T09:32:31;141012.63;;;-12.22;100.00
26915;BME280;14480;52.608;13.416;2023-03-01T09:37:35;141015.06;;;-12.21;100.00
26915;BME280;14480;52.608;13.416;2023-03-01T09:42:45;141101.22;;;-11.86;100.00
26915;BME280;14480;52.608;13.416;2023-03-01T09:47:50;141095.06;;;-11.88;100.00
26915;BME280;14480;52.608;13.416;2023-03-01T09:52:54;141113.56;;;-11.81;100.00
26915;BME280;14480;52.608;13.416;2023-03-01T09:58:06;141103.66;;;-11.85;99.16
26915;BME280;14480;52.608;13.416;2023-03-01T10:03:21;141104.91;;;-11.84;99.86
26915;BME280;14480;52.608;13.416;2023-03-01T10:08:29;141123.34;;;-11.77;99.69
26915;BME280;14480;52.608;13.416;2023-03-01T10:13:37;141210.75;;;-11.40;95.66
26915;BME280;14480;52.608;13.416;2023-03-01T10:18:50;141219.34;;;-11.37;90.71
26915;BME280;14480;52.608;13.416;2023-03-01T10:24:05;141193.50;;;-11.48;85.61
26915;BME280;14480;52.608;13.416;2023-03-01T10:29:12;141266.16;;;-11.18;83.70
26915;BME280;14480;52.608;13.416;2023-03-01T10:34:17;141230.47;;;-11.32;78.52
26915;BME280;14480;52.608;13.416;2023-03-01T10:39:24;141298.19;;;-11.04;79.55
26915;BME280;14480;52.608;13.416;2023-03-01T10:44:35;141326.53;;;-10.93;73.85
26915;BME280;14480;52.608;13.416;2023-03-01T10:49:42;141368.44;;;-10.75;70.61
26915;BME280;14480;52.608;13.416;2023-03-01T10:55:02;141433.75;;;-10.48;67.95
26915;BME280;14480;52.608;13.416;2023-03-01T11:00:20;141405.38;;;-10.60;66.16
26915;BME280;14480;52.608;13.416;2023-03-01T11:05:26;141414.00;;;-10.56;66.78
26915;BME280;14480;52.608;13.416;2023-03-01T11:10:33;141481.81;;;-10.28;66.38
26915;BME280;14480;52.608;13.416;2023-03-01T11:15:37;141527.38;;;-10.10;65.93
26915;BME280;14480;52.608;13.416;2023-03-01T11:20:44;141570.53;;;-9.92;67.50
26915;BME280;14480;52.608;13.416;2023-03-01T11:25:56;141554.50;;;-9.98;67.64
26915;BME280;14480;52.608;13.416;2023-03-01T11:31:02;141555.72;;;-9.98;68.24
26915;BME280;14480;52.608;13.416;2023-03-01T11:36:13;141614.91;;;-9.74;68.38
26915;BME280;14480;52.608;13.416;2023-03-01T11:41:19;141545.88;;;-10.02;66.46
26915;BME280;14480;52.608;13.416;2023-03-01T11:46:36;141549.56;;;-10.01;65.47
26915;BME280;14480;52.608;13.416;2023-03-01T11:51:47;141547.09;;;-10.02;66.90
26915;BME280;14480;52.608;13.416;2023-03-01T11:56:57;141569.31;;;-9.92;66.34
26915;BME280;14480;52.608;13.416;2023-03-01T12:02:22;141552.03;;;-10.00;65.88
26915;BME280;14480;52.608;13.416;2023-03-01T12:07:34;141564.38;;;-9.94;65.87
26915;BME280;14480;52.608;13.416;2023-03-01T12:12:46;141563.16;;;-9.95;63.58
26915;BME280;14480;52.608;13.416;2023-03-01T12:17:56;141623.56;;;-9.70;62.49
26915;BME280;14480;52.608;13.416;2023-03-01T12:23:06;141610.00;;;-9.76;59.71
26915;BME280;14480;52.608;13.416;2023-03-01T12:28:27;141586.53;;;-9.85;58.95
26915;BME280;14480;52.608;13.416;2023-03-01T12:33:36;141611.22;;;-9.75;59.30
26915;BME280;14480;52.608;13.416;2023-03-01T12:38:48;141607.53;;;-9.77;58.33
26915;BME280;14480;52.608;13.416;2023-03-01T12:43:57;141590.28;;;-9.84;55.09
26915;BME280;14480;52.608;13.416;2023-03-01T12:49:03;141650.72;;;-9.59;56.71
26915;BME280;14480;52.608;13.416;2023-03-01T12:54:14;141680.31;;;-9.47;59.74
26915;BME280;14480;52.608;13.416;2023-03-01T12:59:21;141688.94;;;-9.43;58.65
26915;BME280;14480;52.608;13.416;2023-03-01T13:04:34;141681.56;;;-9.46;59.50
26915;BME280;14480;52.608;13.416;2023-03-01T13:09:43;141745.69;;;-9.20;60.59
26915;BME280;14480;52.608;13.416;2023-03-01T13:14:53;141786.41;;;-9.03;59.54
26915;BME280;14480;52.608;13.416;2023-03-01T13:19:57;141771.63;;;-9.09;57.58
26915;BME280;14480;52.608;13.416;2023-03-01T13:25:03;141761.75;;;-9.13;57.75
26915;BME280;14480;52.608;13.416;2023-03-01T13:30:37;141783.94;;;-9.04;57.99
26915;BME280;14480;52.608;13.416;2023-03-01T13:35:44;141781.47;;;-9.05;58.34
26915;BME280;14480;52.608;13.416;2023-03-01T13:40:59;141760.53;;;-9.14;59.14
26915;BME280;14480;52.608;13.416;2023-03-01T13:46:07;141787.69;;;-9.02;58.81
26915;BME280;14480;52.608;13.416;2023-03-01T13:51:13;141777.78;;;-9.06;59.60
26915;BME280;14480;52.608;13.416;2023-03-01T13:56:21;141804.94;;;-8.95;59.15
26915;BME280;14480;52.608;13.416;2023-03-01T14:01:28;141808.63;;;-8.94;59.45
26915;BME280;14480;52.608;13.416;2023-03-01T14:06:32;141821.00;;;-8.89;59.96
26915;BME280;14480;52.608;13.416;2023-03-01T14:11:56;141818.53;;;-8.90;58.59
26915;BME280;14480;52.608;13.416;2023-03-01T14:17:06;141795.06;;;-8.99;58.97
26915;BME280;14480;52.608;13.416;2023-03-01T14:22:15;141801.25;;;-8.97;59.08
26915;BME280;14480;52.608;13.416;2023-03-01T14:27:21;141793.84;;;-9.00;58.54
26915;BME280;14480;52.608;13.416;2023-03-01T14:32:25;141790.16;;;-9.01;59.36
26915;BME280;14480;52.608;13.416;2023-03-01T14:37:31;141807.41;;;-8.94;59.45
26915;BME280;14480;52.608;13.416;2023-03-01T14:42:36;141827.16;;;-8.86;60.51
26915;BME280;14480;52.608;13.416;2023-03-01T14:47:40;141714.84;;;-9.32;59.15
26915;BME280;14480;52.608;13.416;2023-03-01T14:52:46;141834.56;;;-8.83;59.02
26915;BME280;14480;52.608;13.416;2023-03-01T14:57:52;141848.16;;;-8.77;59.75
26915;BME280;14480;52.608;13.416;2023-03-01T15:02:56;141829.63;;;-8.85;61.43
26915;BME280;14480;52.608;13.416;2023-03-01T15:08:01;141817.31;;;-8.90;63.10
26915;BME280;14480;52.608;13.416;2023-03-01T15:13:13;141802.47;;;-8.96;63.00
26915;BME280;14480;52.608;13.416;2023-03-01T15:18:17;141809.88;;;-8.93;65.46
26915;BME280;14480;52.608;13.416;2023-03-01T15:23:22;141825.94;;;-8.87;66.44
26915;BME280;14480;52.608;13.416;2023-03-01T15:28:28;141790.16;;;-9.01;67.07
26915;BME280;14480;52.608;13.416;2023-03-01T15:33:33;141780.25;;;-9.05;67.92
26915;BME280;14480;52.608;13.416;2023-03-01T15:38:50;141786.41;;;-9.03;67.74
26915;BME280;14480;52.608;13.416;2023-03-01T15:43:57;141755.56;;;-9.16;69.18
26915;BME280;14480;52.608;13.416;2023-03-01T15:49:02;141753.09;;;-9.17;69.80
26915;BME280;14480;52.608;13.416;2023-03-01T15:54:07;141717.31;;;-9.31;71.53
26915;BME280;14480;52.608;13.416;2023-03-01T15:59:16;141705.00;;;-9.36;72.05
26915;BME280;14480;52.608;13.416;2023-03-01T16:04:20;141672.88;;;-9.50;73.09
26915;BME280;14480;52.608;13.416;2023-03-01T16:09:25;141661.81;;;-9.54;73.76
26915;BME280;14480;52.608;13.416;2023-03-01T16:14:32;141624.81;;;-9.69;74.78
26915;BME280;14480;52.608;13.416;2023-03-01T16:19:35;141611.22;;;-9.75;75.49
26915;BME280;14480;52.608;13.416;2023-03-01T16:24:39;141589.00;;;-9.84;76.30
26915;BME280;14480;52.608;13.416;2023-03-01T16:29:45;141548.34;;;-10.01;77.55
26915;BME280;14480;52.608;13.416;2023-03-01T16:34:48;141515.06;;;-10.15;78.39
26915;BME280;14480;52.608;13.416;2023-03-01T16:39:51;141483.06;;;-10.28;79.43
26915;BME280;14480;52.608;13.416;2023-03-01T16:44:56;141458.41;;;-10.38;80.66
26915;BME280;14480;52.608;13.416;2023-03-01T16:50:00;141448.50;;;-10.42;81.40
26915;BME280;14480;52.608;13.416;2023-03-01T16:55:04;141423.91;;;-10.52;81.95
26915;BME280;14480;52.608;13.416;2023-03-01T17:00:09;141400.47;;;-10.62;82.77
26915;BME280;14480;52.608;13.416;2023-03-01T17:05:14;141388.13;;;-10.67;83.21
26915;BME280;14480;52.608;13.416;2023-03-01T17:10:18;141375.81;;;-10.72;83.38
26915;BME280;14480;52.608;13.416;2023-03-01T17:16:14;141354.84;;;-10.81;84.33
26915;BME280;14480;52.608;13.416;2023-03-01T17:21:36;141322.84;;;-10.94;85.18
26915;BME280;14480;52.608;13.416;2023-03-01T17:26:40;141315.44;;;-10.97;85.18
26915;BME280;14480;52.608;13.416;2023-03-01T17:31:45;141301.88;;;-11.03;85.97
26915;BME280;14480;52.608;13.416;2023-03-01T17:36:48;141271.09;;;-11.15;86.97
26915;BME280;14480;52.608;13.416;2023-03-01T17:41:53;141255.09;;;-11.22;87.19
26915;BME280;14480;52.608;13.416;2023-03-01T17:46:58;141218.13;;;-11.37;88.35
26915;BME280;14480;52.608;13.416;2023-03-01T17:52:01;141193.50;;;-11.48;89.93
26915;BME280;14480;52.608;13.416;2023-03-01T17:57:05;141167.63;;;-11.58;90.98
26915;BME280;14480;52.608;13.416;2023-03-01T18:02:10;141146.72;;;-11.67;91.52
26915;BME280;14480;52.608;13.416;2023-03-01T18:07:14;141122.09;;;-11.77;94.20
26915;BME280;14480;52.608;13.416;2023-03-01T18:12:17;141109.81;;;-11.82;94.00
26915;BME280;14480;52.608;13.416;2023-03-01T18:17:22;141082.72;;;-11.93;95.48
26915;BME280;14480;52.608;13.416;2023-03-01T18:22:29;141061.84;;;-12.02;95.93
26915;BME280;14480;52.608;13.416;2023-03-01T18:27:33;141007.69;;;-12.24;97.76
26915;BME280;14480;52.608;13.416;2023-03-01T18:32:42;140967.06;;;-12.41;100.00
26915;BME280;14480;52.608;13.416;2023-03-01T18:37:46;140951.09;;;-12.48;100.00
26915;BME280;14480;52.608;13.416;2023-03-01T18:42:50;140909.25;;;-12.65;100.00
26915;BME280;14480;52.608;13.416;2023-03-01T18:47:55;140908.03;;;-12.66;100.00
26915;BME280;14480;52.608;13.416;2023-03-01T18:52:58;140884.66;;;-12.75;100.00
26915;BME280;14480;52.608;13.416;2023-03-01T18:58:04;140828.09;;;-12.99;100.00
26915;BME280;14480;52.608;13.416;2023-03-01T19:03:09;140783.84;;;-13.17;100.00
26915;BME280;14480;52.608;13.416;2023-03-01T19:08:13;140734.72;;;-13.37;100.00
26915;BME280;14480;52.608;13.416;2023-03-01T19:13:16;140713.81;;;-13.46;100.00
26915;BME280;14480;52.608;13.416;2023-03-01T19:18:21;140688.00;;;-13.57;100.00
26915;BME280;14480;52.608;13.416;2023-03-01T19:23:24;140649.94;;;-13.72;100.00
26915;BME280;14480;52.608;13.416;2023-03-01T19:28:28;140653.59;;;-13.71;100.00
26915;BME280;14480;52.608;13.416;2023-03-01T19:33:34;140629.03;;;-13.81;100.00
26915;BME280;14480;52.608;13.416;2023-03-01T19:38:38;140567.63;;;-14.06;100.00
26915;BME280;14480;52.608;13.416;2023-03-01T19:43:42;140547.94;;;-14.15;100.00
26915;BME280;14480;52.608;13.416;2023-03-01T19:48:47;140501.31;;;-14.34;100.00
26915;BME280;14480;52.608;13.416;2023-03-01T19:53:51;140495.13;;;-14.36;100.00
26915;BME280;14480;52.608;13.416;2023-03-01T19:58:55;140485.34;;;-14.40;100.00
26915;BME280;14480;52.608;13.416;2023-03-01T20:04:03;140470.66;;;-14.47;100.00
26915;BME280;14480;52.608;13.416;2023-03-01T20:09:07;140460.81;;;-14.51;100.00
26915;BME280;14480;52.608;13.416;2023-03-01T20:14:22;140428.91;;;-14.64;100.00
26915;BME280;14480;52.608;13.416;2023-03-01T20:19:27;140388.41;;;-14.81;100.00
26915;BME280;14480;52.608;13.416;2023-03-01T20:24:30;140360.19;;;-14.92;100.00
26915;BME280;14480;52.608;13.416;2023-03-01T20:29:34;140345.44;;;-14.98;100.00
26915;BME280;14480;52.608;13.416;2023-03-01T20:34:39;140336.88;;;-15.02;100.00
26915;BME280;14480;52.608;13.416;2023-03-01T20:39:42;140311.09;;;-15.13;100.00
26915;BME280;14480;52.608;13.416;2023-03-01T20:44:46;140292.66;;;-15.20;100.00
26915;BME280;14480;52.608;13.416;2023-03-01T20:49:51;140276.75;;;-15.27;100.00
26915;BME280;14480;52.608;13.416;2023-03-01T20:54:55;140257.09;;;-15.35;100.00
26915;BME280;14480;52.608;13.416;2023-03-01T20:59:58;140236.25;;;-15.44;100.00
26915;BME280;14480;52.608;13.416;2023-03-01T21:05:06;140220.31;;;-15.50;100.00
26915;BME280;14480;52.608;13.416;2023-03-01T21:10:10;140203.13;;;-15.57;100.00
26915;BME280;14480;52.608;13.416;2023-03-01T21:15:13;140176.19;;;-15.69;100.00
26915;BME280;14480;52.608;13.416;2023-03-01T21:20:31;140162.69;;;-15.74;100.00
26915;BME280;14480;52.608;13.416;2023-03-01T21:25:34;140174.97;;;-15.69;100.00
26915;BME280;14480;52.608;13.416;2023-03-01T21:30:42;140156.56;;;-15.77;100.00
26915;BME280;14480;52.608;13.416;2023-03-01T21:35:48;140139.41;;;-15.84;100.00
26915;BME280;14480;52.608;13.416;2023-03-01T21:40:51;140130.81;;;-15.87;100.00
26915;BME280;14480;52.608;13.416;2023-03-01T21:45:55;140111.22;;;-15.96;100.00
26915;BME280;14480;52.608;13.416;2023-03-01T21:51:00;140081.81;;;-16.08;100.00
26915;BME280;14480;52.608;13.416;2023-03-01T21:56:04;140073.19;;;-16.11;100.00
26915;BME280;14480;52.608;13.416;2023-03-01T22:01:09;140047.44;;;-16.22;100.00
26915;BME280;14480;52.608;13.416;2023-03-01T22:06:15;140010.69;;;-16.37;100.00
26915;BME280;14480;52.608;13.416;2023-03-01T22:11:31;139982.50;;;-16.49;100.00
26915;BME280;14480;52.608;13.416;2023-03-01T22:16:35;139996.00;;;-16.43;100.00
26915;BME280;14480;52.608;13.416;2023-03-01T22:21:40;139882.06;;;-16.91;100.00
26915;BME280;14480;52.608;13.416;2023-03-01T22:26:45;139970.28;;;-16.54;100.00
26915;BME280;14480;52.608;13.416;2023-03-01T22:31:49;139977.59;;;-16.51;100.00
26915;BME280;14480;52.608;13.416;2023-03-01T22:36:55;139977.59;;;-16.51;100.00
26915;BME280;14480;52.608;13.416;2023-03-01T22:41:59;139981.28;;;-16.49;100.00
26915;BME280;14480;52.608;13.416;2023-03-01T22:47:03;139959.22;;;-16.59;100.00
26915;BME280;14480;52.608;13.416;2023-03-01T22:52:07;139960.44;;;-16.58;100.00
26915;BME280;14480;52.608;13.416;2023-03-01T22:57:11;139929.88;;;-16.71;100.00
